Lykens, PA (17048)

7:16 PM EDT on April 19, 2018 (GMT -0400)
Glenn Heights | | Change Station
Active Advisory: Freeze Warning

Elev 792 ft 40.60 °N, 76.70 °W | Updated 10 seconds ago

Overcast
Overcast
37.8 °F
Feels Like 38 °F
N
0.0
Wind Variable Wind from ENE
Gusts 0.0 mph

Today
High -- | Low -- °F
--% Chance of Precip.
Yesterday
High -- | Low -- °F
Precip. -- in
Pressure 30.03 in
Visibility 10.0 miles
Clouds Few 4200 ft
Overcast 5500 ft
Windchill 38 °F
Dew Point 23 °F
Humidity 54%
Rainfall 0.30 in
Snow Depth Not available.
6:22 AM 7:50 PM
Waxing Crescent, 19% visible
METAR KMUI 192256Z 31009G17KT 10SM FEW042 OVC055 05/M03 A3001 RMK AO2A SLP169 T00461034 $
Pressure 30.03 in
Visibility 10.0 miles
Clouds Few 4200 ft
Overcast 5500 ft
Windchill 38 °F
Dew Point 23 °F
Humidity 54%
Rainfall 0.30 in
Snow Depth Not available.
6:22 AM 7:50 PM
Waxing Crescent, 19% visible
METAR KMUI 192256Z 31009G17KT 10SM FEW042 OVC055 05/M03 A3001 RMK AO2A SLP169 T00461034 $

Get Your Daily Forecast Email!

Thanks for signing up!

Be on the lookout for a verification email in your inbox.

You'll start receiving severe weather alerts in your inbox..

×

10-Day Weather Forecast

Almanac

Astronomy

Apr. 19, 2018 Rise Set
Actual Time
Civil Twilight
Nautical Twilight
Astronomical Twilight
Moon
Length of Visible Light
Length of Day
Tomorrow will be .
, % of the Moon is Illuminated

Today's Extremes

State Highs State Lows

Community

WunderPhotos

Category 6

Welcome to Category 6. This is the collective home for Weather Underground's featured writeups by Dr. Jeff Masters (right), Bob Henson (left), Chris Burt, and other regular contributors.

Nearby

Air Quality

  Air Quality AQ Index Pollutant
Not available.

Snow Depth

Station Depth Elevation

Earthquake Activity

City Distance Mag. Time & Date
Minimum magnitude displayed is 2.5.

Coastal Water Temperatures

Place Temperature

Stations

Nearby Weather Stations

Station Location Temp. Windchill Dew Point Humidity Wind Precip. Elev Updated Type
                   

Watches & Warnings

Freeze Warning
Issued: 2:22 PM EDT Apr. 19, 2018 – National Weather Service

... Freeze warning in effect from 2 am to 8 am EDT Friday...

The National Weather Service in State College has issued a freeze
warning, which is in effect from 2 am to 8 am EDT Friday.

* Temperatures... lows in the lower 30s. Upper 20s possible in
sheltered areas.

* Timing... the coldest temperatures will occur around sunrise.

* Impacts... freeze conditions may damage sensitive vegetation.
Take steps now to protect tender plants from the cold.

Precautionary/preparedness actions...

Those with agricultural or gardening interests should protect
sensitive vegetation.